レイキャビク/ケフラヴィーク の空港の天気 - METARとTAF

ケフラヴィーク国際空港 ( BIKF / KEF ) - アイスランド ケプラヴィーク
飛行場実況気象(Metar)
観測時間01/24 19:30 GMT (01/24 19:30 UTC)
風向・風速南東 8m/s 瞬間風速13m/s
視程10km以上
天気現象弱い雨
全天の8割程度の雲 雲底高度 520m
全天の8割程度の雲 雲底高度 1220m
気温3℃
湿度87%
気圧1009hPa
METARBIKF 241930Z 14015G25KT 9999 -RA BKN017 BKN040 03/01 Q1009
過去の天気等 Google飛行場航空写真 Wunderground天気予報

過去48時間のMETAR

飛行場予報(TAF)
発表時間: 1/24 16:33 GMT (1/24 16:33 UTC)
予報対象時間: 24日18時 GMT ~ 25日18時 GMT
風向・風速南南東 8m/s
視程10km以上
天気現象弱い雪雨
全天の4割程度の雲 雲底高度 460m
全天の8割程度の雲 雲底高度 760m
全天を覆う雲 雲底高度 1220m
24日19時 GMT ~ 24日21時 GMT に徐々に
風向・風速南南東 11m/s 瞬間風速 16m/s
視程7000m
天気現象弱い雨雪
全天の8割程度の雲 雲底高度 300m
全天を覆う雲 雲底高度 460m
25日1時 GMT ~ 25日3時 GMT に徐々に
風向・風速南南東 16m/s 瞬間風速 22m/s
視程3500m
天気現象雨霧雨
25日4時 GMT ~ 25日6時 GMT に徐々に
風向・風速南西 18m/s 瞬間風速 23m/s
25日6時 GMT ~ 25日8時 GMT に徐々に
風向・風速南西 21m/s 瞬間風速 28m/s
天気現象しゅう雨
全天の8割程度の積乱雲 雲底高度 240m
25日9時 GMT ~ 25日11時 GMT に徐々に
風向・風速西 21m/s 瞬間風速 28m/s
天気現象しゅう雨雪
25日11時 GMT ~ 25日15時 GMT に一時的に
風向・風速西 23m/s 瞬間風速 33m/s
視程700m
天気現象しゅう雪
全天の8割程度の積乱雲 雲底高度 120m
TAF BIKF 241633Z 2418/2518 15015KT 9999 -SNRA SCT015 BKN025 OVC040 TX06/2505Z TN02/2518Z
BECMG 2419/2421 16022G32KT 7000 -RASN BKN010 OVC015
BECMG 2501/2503 16032G42KT 3500 RADZ
BECMG 2504/2506 23035G45KT
BECMG 2506/2508 23040G55KT SHRA BKN008CB
BECMG 2509/2511 26040G55KT SHRASN
TEMPO 2511/2515 27045G65KT 0700 SHSN BKN004CB